sensor_id;sensor_type;location;lat;lon;timestamp;P1;durP1;ratioP1;P2;durP2;ratioP2
64826;SDS011;51265;53.972;12.286;2023-06-10T00:02:20;17.30;;;4.88;;
64826;SDS011;51265;53.972;12.286;2023-06-10T00:04:46;13.70;;;4.78;;
64826;SDS011;51265;53.972;12.286;2023-06-10T00:07:13;9.68;;;2.85;;
64826;SDS011;51265;53.972;12.286;2023-06-10T00:09:39;8.65;;;2.58;;
64826;SDS011;51265;53.972;12.286;2023-06-10T00:12:07;10.02;;;2.25;;
64826;SDS011;51265;53.972;12.286;2023-06-10T00:14:36;5.45;;;1.65;;
64826;SDS011;51265;53.972;12.286;2023-06-10T00:17:03;7.35;;;2.13;;
64826;SDS011;51265;53.972;12.286;2023-06-10T00:19:30;11.30;;;2.20;;
64826;SDS011;51265;53.972;12.286;2023-06-10T00:21:57;9.38;;;2.35;;
64826;SDS011;51265;53.972;12.286;2023-06-10T00:24:24;8.95;;;2.35;;
64826;SDS011;51265;53.972;12.286;2023-06-10T00:26:50;10.07;;;2.20;;
64826;SDS011;51265;53.972;12.286;2023-06-10T00:29:16;6.25;;;1.75;;
64826;SDS011;51265;53.972;12.286;2023-06-10T00:31:44;9.40;;;2.00;;
64826;SDS011;51265;53.972;12.286;2023-06-10T00:34:11;7.65;;;2.03;;
64826;SDS011;51265;53.972;12.286;2023-06-10T00:36:37;8.40;;;1.70;;
64826;SDS011;51265;53.972;12.286;2023-06-10T00:39:04;7.28;;;2.60;;
64826;SDS011;51265;53.972;12.286;2023-06-10T00:41:30;6.95;;;2.47;;
64826;SDS011;51265;53.972;12.286;2023-06-10T00:43:57;8.18;;;2.08;;
64826;SDS011;51265;53.972;12.286;2023-06-10T00:46:23;7.65;;;1.95;;
64826;SDS011;51265;53.972;12.286;2023-06-10T00:48:51;7.22;;;1.88;;
64826;SDS011;51265;53.972;12.286;2023-06-10T00:51:18;8.38;;;1.88;;
64826;SDS011;51265;53.972;12.286;2023-06-10T00:53:44;7.55;;;1.73;;
64826;SDS011;51265;53.972;12.286;2023-06-10T00:56:11;7.85;;;1.88;;
64826;SDS011;51265;53.972;12.286;2023-06-10T00:58:39;8.68;;;1.88;;
64826;SDS011;51265;53.972;12.286;2023-06-10T01:01:05;7.80;;;1.80;;
64826;SDS011;51265;53.972;12.286;2023-06-10T01:03:32;8.93;;;1.70;;
64826;SDS011;51265;53.972;12.286;2023-06-10T01:07:04;7.65;;;1.98;;
64826;SDS011;51265;53.972;12.286;2023-06-10T01:09:14;7.50;;;1.63;;
64826;SDS011;51265;53.972;12.286;2023-06-10T01:11:51;6.88;;;1.75;;
64826;SDS011;51265;53.972;12.286;2023-06-10T01:14:36;5.70;;;1.50;;
64826;SDS011;51265;53.972;12.286;2023-06-10T01:17:14;5.22;;;1.38;;
64826;SDS011;51265;53.972;12.286;2023-06-10T01:19:42;6.47;;;1.92;;
64826;SDS011;51265;53.972;12.286;2023-06-10T01:22:09;8.95;;;2.30;;
64826;SDS011;51265;53.972;12.286;2023-06-10T01:24:36;5.38;;;1.73;;
64826;SDS011;51265;53.972;12.286;2023-06-10T01:27:08;8.50;;;1.52;;
64826;SDS011;51265;53.972;12.286;2023-06-10T01:29:44;6.95;;;1.77;;
64826;SDS011;51265;53.972;12.286;2023-06-10T01:32:37;7.93;;;1.73;;
64826;SDS011;51265;53.972;12.286;2023-06-10T01:35:07;7.50;;;1.98;;
64826;SDS011;51265;53.972;12.286;2023-06-10T01:37:37;3.80;;;1.70;;
64826;SDS011;51265;53.972;12.286;2023-06-10T01:48:17;9.27;;;1.85;;
64826;SDS011;51265;53.972;12.286;2023-06-10T01:50:44;9.48;;;1.83;;
64826;SDS011;51265;53.972;12.286;2023-06-10T01:53:10;8.90;;;1.90;;
64826;SDS011;51265;53.972;12.286;2023-06-10T01:55:36;5.13;;;1.80;;
64826;SDS011;51265;53.972;12.286;2023-06-10T02:02:08;8.85;;;1.58;;
64826;SDS011;51265;53.972;12.286;2023-06-10T02:04:35;7.30;;;1.75;;
64826;SDS011;51265;53.972;12.286;2023-06-10T02:07:02;10.88;;;2.00;;
64826;SDS011;51265;53.972;12.286;2023-06-10T02:09:30;5.20;;;1.67;;
64826;SDS011;51265;53.972;12.286;2023-06-10T02:11:57;7.15;;;1.42;;
64826;SDS011;51265;53.972;12.286;2023-06-10T02:14:24;9.15;;;2.03;;
64826;SDS011;51265;53.972;12.286;2023-06-10T02:16:50;8.93;;;1.77;;
64826;SDS011;51265;53.972;12.286;2023-06-10T02:19:17;8.02;;;1.63;;
64826;SDS011;51265;53.972;12.286;2023-06-10T02:25:56;6.22;;;1.60;;
64826;SDS011;51265;53.972;12.286;2023-06-10T02:28:22;7.40;;;1.70;;
64826;SDS011;51265;53.972;12.286;2023-06-10T02:30:48;5.50;;;1.63;;
64826;SDS011;51265;53.972;12.286;2023-06-10T02:33:14;6.55;;;1.88;;
64826;SDS011;51265;53.972;12.286;2023-06-10T02:35:42;6.75;;;1.70;;
64826;SDS011;51265;53.972;12.286;2023-06-10T02:38:08;5.07;;;1.50;;
64826;SDS011;51265;53.972;12.286;2023-06-10T02:40:35;6.90;;;1.75;;
64826;SDS011;51265;53.972;12.286;2023-06-10T02:43:01;9.05;;;2.30;;
64826;SDS011;51265;53.972;12.286;2023-06-10T02:45:28;5.40;;;1.67;;
64826;SDS011;51265;53.972;12.286;2023-06-10T02:47:56;5.22;;;1.50;;
64826;SDS011;51265;53.972;12.286;2023-06-10T02:50:22;7.13;;;2.17;;
64826;SDS011;51265;53.972;12.286;2023-06-10T02:52:58;7.95;;;1.92;;
64826;SDS011;51265;53.972;12.286;2023-06-10T02:55:25;7.38;;;1.50;;
64826;SDS011;51265;53.972;12.286;2023-06-10T02:57:55;10.85;;;2.03;;
64826;SDS011;51265;53.972;12.286;2023-06-10T03:00:22;6.22;;;1.60;;
64826;SDS011;51265;53.972;12.286;2023-06-10T03:02:51;9.82;;;1.70;;
64826;SDS011;51265;53.972;12.286;2023-06-10T03:05:22;8.98;;;2.25;;
64826;SDS011;51265;53.972;12.286;2023-06-10T03:07:51;6.07;;;1.70;;
64826;SDS011;51265;53.972;12.286;2023-06-10T03:10:17;5.88;;;1.88;;
64826;SDS011;51265;53.972;12.286;2023-06-10T03:12:44;10.50;;;1.73;;
64826;SDS011;51265;53.972;12.286;2023-06-10T03:15:10;4.95;;;1.63;;
64826;SDS011;51265;53.972;12.286;2023-06-10T03:17:37;9.15;;;2.28;;
64826;SDS011;51265;53.972;12.286;2023-06-10T03:20:03;7.90;;;1.67;;
64826;SDS011;51265;53.972;12.286;2023-06-10T03:22:36;8.55;;;1.77;;
64826;SDS011;51265;53.972;12.286;2023-06-10T03:25:08;10.55;;;2.28;;
64826;SDS011;51265;53.972;12.286;2023-06-10T03:27:41;10.05;;;2.03;;
64826;SDS011;51265;53.972;12.286;2023-06-10T03:30:09;11.73;;;1.83;;
64826;SDS011;51265;53.972;12.286;2023-06-10T03:32:36;9.18;;;1.92;;
64826;SDS011;51265;53.972;12.286;2023-06-10T03:35:06;10.70;;;1.77;;
64826;SDS011;51265;53.972;12.286;2023-06-10T03:37:33;5.43;;;1.70;;
64826;SDS011;51265;53.972;12.286;2023-06-10T03:40:00;5.70;;;1.65;;
64826;SDS011;51265;53.972;12.286;2023-06-10T03:42:26;8.60;;;1.80;;
64826;SDS011;51265;53.972;12.286;2023-06-10T03:44:52;9.60;;;2.13;;
64826;SDS011;51265;53.972;12.286;2023-06-10T03:47:18;5.63;;;1.73;;
64826;SDS011;51265;53.972;12.286;2023-06-10T03:49:44;6.53;;;1.58;;
64826;SDS011;51265;53.972;12.286;2023-06-10T03:52:12;7.35;;;1.67;;
64826;SDS011;51265;53.972;12.286;2023-06-10T03:54:38;9.00;;;1.98;;
64826;SDS011;51265;53.972;12.286;2023-06-10T03:57:04;11.80;;;1.67;;
64826;SDS011;51265;53.972;12.286;2023-06-10T03:59:31;8.90;;;2.40;;
64826;SDS011;51265;53.972;12.286;2023-06-10T04:01:58;8.20;;;1.70;;
64826;SDS011;51265;53.972;12.286;2023-06-10T04:04:24;8.93;;;2.08;;
64826;SDS011;51265;53.972;12.286;2023-06-10T04:06:50;9.38;;;2.33;;
64826;SDS011;51265;53.972;12.286;2023-06-10T04:09:17;5.72;;;1.63;;
64826;SDS011;51265;53.972;12.286;2023-06-10T04:11:43;8.25;;;1.90;;
64826;SDS011;51265;53.972;12.286;2023-06-10T04:14:10;11.32;;;1.80;;
64826;SDS011;51265;53.972;12.286;2023-06-10T04:16:38;8.48;;;2.10;;
64826;SDS011;51265;53.972;12.286;2023-06-10T04:19:04;9.82;;;1.85;;
64826;SDS011;51265;53.972;12.286;2023-06-10T04:21:30;6.82;;;1.95;;
64826;SDS011;51265;53.972;12.286;2023-06-10T04:23:57;8.20;;;2.00;;
64826;SDS011;51265;53.972;12.286;2023-06-10T04:26:23;12.10;;;2.15;;
64826;SDS011;51265;53.972;12.286;2023-06-10T04:28:51;5.30;;;1.90;;
64826;SDS011;51265;53.972;12.286;2023-06-10T04:31:18;9.82;;;1.90;;
64826;SDS011;51265;53.972;12.286;2023-06-10T04:33:46;11.73;;;2.22;;
64826;SDS011;51265;53.972;12.286;2023-06-10T04:36:12;10.98;;;2.10;;
64826;SDS011;51265;53.972;12.286;2023-06-10T04:38:38;11.35;;;2.40;;
64826;SDS011;51265;53.972;12.286;2023-06-10T04:41:05;5.70;;;1.77;;
64826;SDS011;51265;53.972;12.286;2023-06-10T04:43:34;8.98;;;2.00;;
64826;SDS011;51265;53.972;12.286;2023-06-10T04:46:01;8.80;;;1.80;;
64826;SDS011;51265;53.972;12.286;2023-06-10T04:48:28;10.02;;;2.35;;
64826;SDS011;51265;53.972;12.286;2023-06-10T04:50:55;11.18;;;2.30;;
64826;SDS011;51265;53.972;12.286;2023-06-10T04:53:22;11.63;;;2.00;;
64826;SDS011;51265;53.972;12.286;2023-06-10T04:55:49;10.68;;;2.00;;
64826;SDS011;51265;53.972;12.286;2023-06-10T04:58:15;9.48;;;2.55;;
64826;SDS011;51265;53.972;12.286;2023-06-10T05:00:41;11.35;;;2.30;;
64826;SDS011;51265;53.972;12.286;2023-06-10T05:03:07;8.48;;;2.15;;
64826;SDS011;51265;53.972;12.286;2023-06-10T05:05:34;7.63;;;2.33;;
64826;SDS011;51265;53.972;12.286;2023-06-10T05:08:00;7.45;;;2.10;;
64826;SDS011;51265;53.972;12.286;2023-06-10T05:10:26;6.78;;;2.13;;
64826;SDS011;51265;53.972;12.286;2023-06-10T05:12:52;6.95;;;2.15;;
64826;SDS011;51265;53.972;12.286;2023-06-10T05:15:18;7.35;;;1.65;;
64826;SDS011;51265;53.972;12.286;2023-06-10T05:17:44;5.07;;;2.05;;
64826;SDS011;51265;53.972;12.286;2023-06-10T05:20:11;9.20;;;2.10;;
64826;SDS011;51265;53.972;12.286;2023-06-10T05:22:37;7.70;;;1.85;;
64826;SDS011;51265;53.972;12.286;2023-06-10T05:25:03;12.10;;;2.30;;
64826;SDS011;51265;53.972;12.286;2023-06-10T05:27:30;11.55;;;2.40;;
64826;SDS011;51265;53.972;12.286;2023-06-10T05:29:57;5.75;;;1.90;;
64826;SDS011;51265;53.972;12.286;2023-06-10T05:32:23;7.65;;;2.28;;
64826;SDS011;51265;53.972;12.286;2023-06-10T05:34:49;9.60;;;1.85;;
64826;SDS011;51265;53.972;12.286;2023-06-10T05:37:15;16.42;;;2.30;;
64826;SDS011;51265;53.972;12.286;2023-06-10T05:39:41;6.32;;;2.08;;
64826;SDS011;51265;53.972;12.286;2023-06-10T05:42:07;11.40;;;2.03;;
64826;SDS011;51265;53.972;12.286;2023-06-10T05:44:34;9.55;;;1.98;;
64826;SDS011;51265;53.972;12.286;2023-06-10T05:47:00;7.63;;;2.13;;
64826;SDS011;51265;53.972;12.286;2023-06-10T05:49:27;8.27;;;2.20;;
64826;SDS011;51265;53.972;12.286;2023-06-10T05:51:53;7.45;;;1.90;;
64826;SDS011;51265;53.972;12.286;2023-06-10T05:54:19;9.95;;;2.30;;
64826;SDS011;51265;53.972;12.286;2023-06-10T05:56:45;4.38;;;1.83;;
64826;SDS011;51265;53.972;12.286;2023-06-10T05:59:11;10.23;;;2.65;;
64826;SDS011;51265;53.972;12.286;2023-06-10T06:01:37;7.55;;;2.00;;
64826;SDS011;51265;53.972;12.286;2023-06-10T06:04:03;8.90;;;2.20;;
64826;SDS011;51265;53.972;12.286;2023-06-10T06:06:30;9.70;;;2.20;;
64826;SDS011;51265;53.972;12.286;2023-06-10T06:08:56;8.85;;;1.95;;
64826;SDS011;51265;53.972;12.286;2023-06-10T06:11:22;6.78;;;2.00;;
64826;SDS011;51265;53.972;12.286;2023-06-10T06:13:48;10.63;;;2.90;;
64826;SDS011;51265;53.972;12.286;2023-06-10T06:16:14;10.25;;;2.80;;
64826;SDS011;51265;53.972;12.286;2023-06-10T06:18:41;6.18;;;2.17;;
64826;SDS011;51265;53.972;12.286;2023-06-10T06:21:07;10.32;;;2.38;;
64826;SDS011;51265;53.972;12.286;2023-06-10T06:23:33;7.55;;;2.38;;
64826;SDS011;51265;53.972;12.286;2023-06-10T06:25:59;4.60;;;1.80;;
64826;SDS011;51265;53.972;12.286;2023-06-10T06:28:25;6.20;;;2.05;;
64826;SDS011;51265;53.972;12.286;2023-06-10T06:30:55;9.32;;;2.08;;
64826;SDS011;51265;53.972;12.286;2023-06-10T06:33:22;9.63;;;2.00;;
64826;SDS011;51265;53.972;12.286;2023-06-10T06:35:48;8.27;;;2.58;;
64826;SDS011;51265;53.972;12.286;2023-06-10T06:38:14;9.68;;;2.22;;
64826;SDS011;51265;53.972;12.286;2023-06-10T06:40:40;12.07;;;2.72;;
64826;SDS011;51265;53.972;12.286;2023-06-10T06:43:06;10.38;;;2.70;;
64826;SDS011;51265;53.972;12.286;2023-06-10T06:46:02;10.18;;;2.40;;
64826;SDS011;51265;53.972;12.286;2023-06-10T06:48:28;9.70;;;2.13;;
64826;SDS011;51265;53.972;12.286;2023-06-10T06:50:54;9.40;;;2.08;;
64826;SDS011;51265;53.972;12.286;2023-06-10T06:53:22;9.25;;;2.70;;
64826;SDS011;51265;53.972;12.286;2023-06-10T06:55:48;4.47;;;2.15;;
64826;SDS011;51265;53.972;12.286;2023-06-10T06:58:14;16.00;;;2.25;;
64826;SDS011;51265;53.972;12.286;2023-06-10T07:00:40;9.13;;;2.40;;
64826;SDS011;51265;53.972;12.286;2023-06-10T07:03:06;7.68;;;2.40;;
64826;SDS011;51265;53.972;12.286;2023-06-10T07:05:33;9.07;;;2.42;;
64826;SDS011;51265;53.972;12.286;2023-06-10T07:07:59;8.18;;;2.67;;
64826;SDS011;51265;53.972;12.286;2023-06-10T07:10:25;10.82;;;2.55;;
64826;SDS011;51265;53.972;12.286;2023-06-10T07:12:52;8.25;;;2.50;;
64826;SDS011;51265;53.972;12.286;2023-06-10T07:15:19;6.72;;;2.08;;
64826;SDS011;51265;53.972;12.286;2023-06-10T07:17:45;11.20;;;3.08;;
64826;SDS011;51265;53.972;12.286;2023-06-10T07:20:11;8.35;;;2.38;;
64826;SDS011;51265;53.972;12.286;2023-06-10T07:22:39;9.80;;;2.85;;
64826;SDS011;51265;53.972;12.286;2023-06-10T07:25:07;5.75;;;2.25;;
64826;SDS011;51265;53.972;12.286;2023-06-10T07:27:33;9.52;;;2.95;;
64826;SDS011;51265;53.972;12.286;2023-06-10T07:29:59;8.10;;;2.42;;
64826;SDS011;51265;53.972;12.286;2023-06-10T07:32:26;11.93;;;2.80;;
64826;SDS011;51265;53.972;12.286;2023-06-10T07:34:52;11.95;;;2.25;;
64826;SDS011;51265;53.972;12.286;2023-06-10T07:37:19;8.95;;;2.45;;
64826;SDS011;51265;53.972;12.286;2023-06-10T07:39:45;7.35;;;2.88;;
64826;SDS011;51265;53.972;12.286;2023-06-10T07:42:11;9.40;;;2.50;;
64826;SDS011;51265;53.972;12.286;2023-06-10T07:44:37;9.98;;;2.58;;
64826;SDS011;51265;53.972;12.286;2023-06-10T07:47:04;8.52;;;2.65;;
64826;SDS011;51265;53.972;12.286;2023-06-10T07:49:30;8.38;;;2.20;;
64826;SDS011;51265;53.972;12.286;2023-06-10T07:51:56;8.98;;;2.60;;
64826;SDS011;51265;53.972;12.286;2023-06-10T07:54:23;10.75;;;2.47;;
64826;SDS011;51265;53.972;12.286;2023-06-10T07:56:49;6.93;;;2.70;;
64826;SDS011;51265;53.972;12.286;2023-06-10T07:59:15;7.07;;;2.35;;
64826;SDS011;51265;53.972;12.286;2023-06-10T08:01:43;5.20;;;2.40;;
64826;SDS011;51265;53.972;12.286;2023-06-10T08:04:10;12.25;;;2.25;;
64826;SDS011;51265;53.972;12.286;2023-06-10T08:06:37;7.20;;;2.20;;
64826;SDS011;51265;53.972;12.286;2023-06-10T08:09:03;6.10;;;2.63;;
64826;SDS011;51265;53.972;12.286;2023-06-10T08:11:29;5.90;;;2.47;;
64826;SDS011;51265;53.972;12.286;2023-06-10T08:13:55;10.32;;;2.78;;
64826;SDS011;51265;53.972;12.286;2023-06-10T08:16:22;6.75;;;2.30;;
64826;SDS011;51265;53.972;12.286;2023-06-10T08:18:48;9.40;;;2.50;;
64826;SDS011;51265;53.972;12.286;2023-06-10T08:21:16;7.05;;;2.70;;
64826;SDS011;51265;53.972;12.286;2023-06-10T08:23:42;6.28;;;2.53;;
64826;SDS011;51265;53.972;12.286;2023-06-10T08:26:10;10.52;;;2.65;;
64826;SDS011;51265;53.972;12.286;2023-06-10T08:28:36;12.60;;;2.63;;
64826;SDS011;51265;53.972;12.286;2023-06-10T08:31:02;9.50;;;2.78;;
64826;SDS011;51265;53.972;12.286;2023-06-10T08:33:28;8.02;;;2.30;;
64826;SDS011;51265;53.972;12.286;2023-06-10T08:35:54;7.70;;;2.85;;
64826;SDS011;51265;53.972;12.286;2023-06-10T08:38:20;7.97;;;2.33;;
64826;SDS011;51265;53.972;12.286;2023-06-10T08:40:46;7.15;;;2.40;;
64826;SDS011;51265;53.972;12.286;2023-06-10T08:45:51;9.65;;;2.75;;
64826;SDS011;51265;53.972;12.286;2023-06-10T08:48:23;13.90;;;2.83;;
64826;SDS011;51265;53.972;12.286;2023-06-10T08:50:51;8.63;;;3.15;;
64826;SDS011;51265;53.972;12.286;2023-06-10T08:53:18;7.07;;;2.78;;
64826;SDS011;51265;53.972;12.286;2023-06-10T08:55:46;6.95;;;3.25;;
64826;SDS011;51265;53.972;12.286;2023-06-10T08:58:23;7.00;;;2.38;;
64826;SDS011;51265;53.972;12.286;2023-06-10T09:00:52;11.75;;;3.10;;
64826;SDS011;51265;53.972;12.286;2023-06-10T09:03:19;7.50;;;2.47;;
64826;SDS011;51265;53.972;12.286;2023-06-10T09:05:46;13.18;;;2.60;;
64826;SDS011;51265;53.972;12.286;2023-06-10T09:08:12;8.38;;;2.65;;
64826;SDS011;51265;53.972;12.286;2023-06-10T09:10:41;8.48;;;2.58;;
64826;SDS011;51265;53.972;12.286;2023-06-10T09:13:07;7.63;;;2.28;;
64826;SDS011;51265;53.972;12.286;2023-06-10T09:15:33;8.27;;;2.95;;
64826;SDS011;51265;53.972;12.286;2023-06-10T09:17:59;7.75;;;2.17;;
64826;SDS011;51265;53.972;12.286;2023-06-10T09:20:26;6.10;;;2.53;;
64826;SDS011;51265;53.972;12.286;2023-06-10T09:22:52;8.95;;;2.75;;
64826;SDS011;51265;53.972;12.286;2023-06-10T09:25:19;10.02;;;2.20;;
64826;SDS011;51265;53.972;12.286;2023-06-10T09:28:00;6.65;;;2.72;;
64826;SDS011;51265;53.972;12.286;2023-06-10T09:30:29;8.00;;;2.45;;
64826;SDS011;51265;53.972;12.286;2023-06-10T09:32:57;9.23;;;2.35;;
64826;SDS011;51265;53.972;12.286;2023-06-10T09:35:26;7.10;;;2.25;;
64826;SDS011;51265;53.972;12.286;2023-06-10T09:37:59;10.52;;;2.45;;
64826;SDS011;51265;53.972;12.286;2023-06-10T09:40:26;20.15;;;2.70;;
64826;SDS011;51265;53.972;12.286;2023-06-10T09:42:58;5.85;;;2.03;;
64826;SDS011;51265;53.972;12.286;2023-06-10T09:45:32;7.50;;;2.38;;
64826;SDS011;51265;53.972;12.286;2023-06-10T09:47:58;8.77;;;2.22;;
64826;SDS011;51265;53.972;12.286;2023-06-10T09:50:24;10.88;;;2.38;;
64826;SDS011;51265;53.972;12.286;2023-06-10T09:52:51;9.38;;;2.50;;
64826;SDS011;51265;53.972;12.286;2023-06-10T09:55:17;12.07;;;2.50;;
64826;SDS011;51265;53.972;12.286;2023-06-10T09:57:44;7.47;;;2.22;;
64826;SDS011;51265;53.972;12.286;2023-06-10T10:00:14;9.38;;;2.75;;
64826;SDS011;51265;53.972;12.286;2023-06-10T10:02:48;7.32;;;2.28;;
64826;SDS011;51265;53.972;12.286;2023-06-10T10:05:16;9.65;;;2.25;;
64826;SDS011;51265;53.972;12.286;2023-06-10T10:07:44;8.10;;;2.38;;
64826;SDS011;51265;53.972;12.286;2023-06-10T10:10:11;7.32;;;2.70;;
64826;SDS011;51265;53.972;12.286;2023-06-10T10:12:39;7.35;;;2.42;;
64826;SDS011;51265;53.972;12.286;2023-06-10T10:15:06;7.13;;;2.40;;
64826;SDS011;51265;53.972;12.286;2023-06-10T10:17:37;8.93;;;2.45;;
64826;SDS011;51265;53.972;12.286;2023-06-10T10:20:09;6.22;;;2.70;;
64826;SDS011;51265;53.972;12.286;2023-06-10T10:22:41;5.07;;;2.20;;
64826;SDS011;51265;53.972;12.286;2023-06-10T10:25:10;7.30;;;3.00;;
64826;SDS011;51265;53.972;12.286;2023-06-10T10:27:42;10.30;;;2.70;;
64826;SDS011;51265;53.972;12.286;2023-06-10T10:30:11;11.02;;;2.70;;
64826;SDS011;51265;53.972;12.286;2023-06-10T10:35:16;4.88;;;2.50;;
64826;SDS011;51265;53.972;12.286;2023-06-10T10:37:44;7.80;;;2.47;;
64826;SDS011;51265;53.972;12.286;2023-06-10T10:40:12;6.88;;;2.40;;
64826;SDS011;51265;53.972;12.286;2023-06-10T10:42:39;11.90;;;2.70;;
64826;SDS011;51265;53.972;12.286;2023-06-10T10:45:06;6.75;;;2.30;;
64826;SDS011;51265;53.972;12.286;2023-06-10T10:51:25;9.90;;;2.60;;
64826;SDS011;51265;53.972;12.286;2023-06-10T10:54:09;5.95;;;2.10;;
64826;SDS011;51265;53.972;12.286;2023-06-10T10:56:39;7.45;;;2.50;;
64826;SDS011;51265;53.972;12.286;2023-06-10T10:59:05;7.35;;;2.38;;
64826;SDS011;51265;53.972;12.286;2023-06-10T11:01:39;8.05;;;2.30;;
64826;SDS011;51265;53.972;12.286;2023-06-10T11:04:09;11.02;;;2.28;;
64826;SDS011;51265;53.972;12.286;2023-06-10T11:06:35;5.60;;;2.30;;
64826;SDS011;51265;53.972;12.286;2023-06-10T11:09:05;6.30;;;2.55;;
64826;SDS011;51265;53.972;12.286;2023-06-10T11:11:51;8.82;;;1.90;;
64826;SDS011;51265;53.972;12.286;2023-06-10T11:14:25;4.00;;;2.00;;
64826;SDS011;51265;53.972;12.286;2023-06-10T11:16:56;8.45;;;2.38;;
64826;SDS011;51265;53.972;12.286;2023-06-10T11:19:35;9.52;;;2.03;;
64826;SDS011;51265;53.972;12.286;2023-06-10T11:22:05;9.95;;;2.20;;
64826;SDS011;51265;53.972;12.286;2023-06-10T11:24:33;10.02;;;2.30;;
64826;SDS011;51265;53.972;12.286;2023-06-10T11:27:21;8.25;;;2.10;;
64826;SDS011;51265;53.972;12.286;2023-06-10T11:29:57;7.85;;;2.10;;
64826;SDS011;51265;53.972;12.286;2023-06-10T11:32:28;6.88;;;2.10;;
64826;SDS011;51265;53.972;12.286;2023-06-10T11:34:57;6.18;;;1.88;;
64826;SDS011;51265;53.972;12.286;2023-06-10T11:37:24;7.40;;;1.98;;
64826;SDS011;51265;53.972;12.286;2023-06-10T11:39:53;5.80;;;2.20;;
64826;SDS011;51265;53.972;12.286;2023-06-10T11:42:21;6.32;;;2.25;;
64826;SDS011;51265;53.972;12.286;2023-06-10T11:44:49;4.88;;;2.10;;
64826;SDS011;51265;53.972;12.286;2023-06-10T11:47:16;6.82;;;2.22;;
64826;SDS011;51265;53.972;12.286;2023-06-10T11:49:43;6.80;;;2.15;;
64826;SDS011;51265;53.972;12.286;2023-06-10T11:52:10;4.78;;;1.80;;
64826;SDS011;51265;53.972;12.286;2023-06-10T11:54:37;5.60;;;1.83;;
64826;SDS011;51265;53.972;12.286;2023-06-10T11:57:04;5.82;;;1.83;;
64826;SDS011;51265;53.972;12.286;2023-06-10T11:59:30;9.00;;;2.30;;
64826;SDS011;51265;53.972;12.286;2023-06-10T12:01:56;6.80;;;2.25;;
64826;SDS011;51265;53.972;12.286;2023-06-10T12:04:23;7.35;;;2.03;;
64826;SDS011;51265;53.972;12.286;2023-06-10T12:06:52;3.55;;;1.75;;
64826;SDS011;51265;53.972;12.286;2023-06-10T12:09:26;5.68;;;2.10;;
64826;SDS011;51265;53.972;12.286;2023-06-10T12:11:57;7.75;;;2.10;;
64826;SDS011;51265;53.972;12.286;2023-06-10T12:17:21;5.68;;;1.85;;
64826;SDS011;51265;53.972;12.286;2023-06-10T12:19:49;6.15;;;2.13;;
64826;SDS011;51265;53.972;12.286;2023-06-10T12:22:18;6.90;;;1.80;;
64826;SDS011;51265;53.972;12.286;2023-06-10T12:24:58;5.28;;;1.95;;
64826;SDS011;51265;53.972;12.286;2023-06-10T12:27:37;4.72;;;1.90;;
64826;SDS011;51265;53.972;12.286;2023-06-10T12:30:04;5.53;;;1.80;;
64826;SDS011;51265;53.972;12.286;2023-06-10T12:32:39;5.57;;;2.03;;
64826;SDS011;51265;53.972;12.286;2023-06-10T12:35:07;7.03;;;2.22;;
64826;SDS011;51265;53.972;12.286;2023-06-10T12:37:34;5.50;;;2.15;;
64826;SDS011;51265;53.972;12.286;2023-06-10T12:40:04;7.72;;;2.00;;
64826;SDS011;51265;53.972;12.286;2023-06-10T12:42:37;6.00;;;2.10;;
64826;SDS011;51265;53.972;12.286;2023-06-10T12:45:04;6.28;;;1.70;;
64826;SDS011;51265;53.972;12.286;2023-06-10T12:47:34;7.72;;;1.98;;
64826;SDS011;51265;53.972;12.286;2023-06-10T12:50:02;6.03;;;1.80;;
64826;SDS011;51265;53.972;12.286;2023-06-10T12:52:29;5.30;;;2.20;;
64826;SDS011;51265;53.972;12.286;2023-06-10T12:54:55;7.35;;;2.30;;
64826;SDS011;51265;53.972;12.286;2023-06-10T12:57:22;6.50;;;2.05;;
64826;SDS011;51265;53.972;12.286;2023-06-10T12:59:48;6.10;;;1.88;;
64826;SDS011;51265;53.972;12.286;2023-06-10T13:02:29;11.75;;;2.05;;
64826;SDS011;51265;53.972;12.286;2023-06-10T13:04:55;9.77;;;2.00;;
64826;SDS011;51265;53.972;12.286;2023-06-10T13:07:21;7.15;;;2.22;;
64826;SDS011;51265;53.972;12.286;2023-06-10T13:09:49;6.18;;;1.90;;
64826;SDS011;51265;53.972;12.286;2023-06-10T13:12:15;5.72;;;2.13;;
64826;SDS011;51265;53.972;12.286;2023-06-10T13:14:41;10.75;;;2.17;;
64826;SDS011;51265;53.972;12.286;2023-06-10T13:17:07;7.47;;;2.28;;
64826;SDS011;51265;53.972;12.286;2023-06-10T13:19:33;5.05;;;1.95;;
64826;SDS011;51265;53.972;12.286;2023-06-10T13:21:59;7.88;;;2.05;;
64826;SDS011;51265;53.972;12.286;2023-06-10T13:24:25;6.50;;;2.10;;
64826;SDS011;51265;53.972;12.286;2023-06-10T13:26:52;6.00;;;2.47;;
64826;SDS011;51265;53.972;12.286;2023-06-10T13:29:18;5.15;;;2.10;;
64826;SDS011;51265;53.972;12.286;2023-06-10T13:31:44;8.95;;;1.98;;
64826;SDS011;51265;53.972;12.286;2023-06-10T13:34:10;5.18;;;1.88;;
64826;SDS011;51265;53.972;12.286;2023-06-10T13:36:36;6.70;;;1.70;;
64826;SDS011;51265;53.972;12.286;2023-06-10T13:39:03;7.70;;;2.55;;
64826;SDS011;51265;53.972;12.286;2023-06-10T13:41:29;6.63;;;2.35;;
64826;SDS011;51265;53.972;12.286;2023-06-10T13:43:55;4.32;;;1.95;;
64826;SDS011;51265;53.972;12.286;2023-06-10T13:46:22;5.75;;;2.10;;
64826;SDS011;51265;53.972;12.286;2023-06-10T13:48:48;4.80;;;2.00;;
64826;SDS011;51265;53.972;12.286;2023-06-10T13:51:14;10.30;;;2.35;;
64826;SDS011;51265;53.972;12.286;2023-06-10T13:53:40;18.58;;;2.40;;
64826;SDS011;51265;53.972;12.286;2023-06-10T13:56:06;8.25;;;2.10;;
64826;SDS011;51265;53.972;12.286;2023-06-10T13:58:33;4.15;;;2.20;;
64826;SDS011;51265;53.972;12.286;2023-06-10T14:01:05;9.52;;;2.03;;
64826;SDS011;51265;53.972;12.286;2023-06-10T14:03:31;11.27;;;2.25;;
64826;SDS011;51265;53.972;12.286;2023-06-10T14:05:57;7.80;;;2.10;;
64826;SDS011;51265;53.972;12.286;2023-06-10T14:08:23;9.10;;;2.28;;
64826;SDS011;51265;53.972;12.286;2023-06-10T14:10:50;6.90;;;2.17;;
64826;SDS011;51265;53.972;12.286;2023-06-10T14:13:19;9.82;;;1.85;;
64826;SDS011;51265;53.972;12.286;2023-06-10T14:15:45;9.40;;;2.22;;
64826;SDS011;51265;53.972;12.286;2023-06-10T14:18:12;8.75;;;2.40;;
64826;SDS011;51265;53.972;12.286;2023-06-10T14:20:38;3.95;;;2.00;;
64826;SDS011;51265;53.972;12.286;2023-06-10T14:23:04;7.97;;;1.90;;
64826;SDS011;51265;53.972;12.286;2023-06-10T14:25:30;7.60;;;2.40;;
64826;SDS011;51265;53.972;12.286;2023-06-10T14:27:56;7.65;;;2.03;;
64826;SDS011;51265;53.972;12.286;2023-06-10T14:30:23;7.32;;;1.85;;
64826;SDS011;51265;53.972;12.286;2023-06-10T14:32:50;10.27;;;1.90;;
64826;SDS011;51265;53.972;12.286;2023-06-10T14:35:16;7.95;;;1.88;;
64826;SDS011;51265;53.972;12.286;2023-06-10T14:37:42;6.22;;;2.00;;
64826;SDS011;51265;53.972;12.286;2023-06-10T14:40:08;8.20;;;2.05;;
64826;SDS011;51265;53.972;12.286;2023-06-10T14:42:35;5.00;;;2.05;;
64826;SDS011;51265;53.972;12.286;2023-06-10T14:45:01;9.10;;;2.28;;
64826;SDS011;51265;53.972;12.286;2023-06-10T14:47:28;7.03;;;2.13;;
64826;SDS011;51265;53.972;12.286;2023-06-10T14:49:54;11.70;;;1.90;;
64826;SDS011;51265;53.972;12.286;2023-06-10T14:52:23;5.65;;;1.73;;
64826;SDS011;51265;53.972;12.286;2023-06-10T14:54:49;10.43;;;2.15;;
64826;SDS011;51265;53.972;12.286;2023-06-10T14:57:15;9.60;;;2.15;;
64826;SDS011;51265;53.972;12.286;2023-06-10T14:59:41;7.45;;;2.00;;
64826;SDS011;51265;53.972;12.286;2023-06-10T15:02:07;7.60;;;1.80;;
64826;SDS011;51265;53.972;12.286;2023-06-10T15:04:33;7.90;;;2.17;;
64826;SDS011;51265;53.972;12.286;2023-06-10T15:07:00;8.07;;;2.03;;